Terminal Aerodrome Forecast
Issued by NWS

Home | Current Version | Previous Version | Graphics & Text | Print | Product List | Glossary On
Versions: 1 2 3 4 5 6 7 8 9 10 11 12 13 14 15 16 17 18 19 20 21 22
000
FTUS43 KGRB 240618 AAA
TAFAUW
TAF AMD
KAUW 240618Z 2406/2506 31004KT 3SM BR OVC006
      TEMPO 2406/2410 1/2SM FG OVC003
     FM241000 31003KT 1/4SM FG BKN002
     FM241400 34003KT 3SM BR OVC004
     FM241700 VRB03KT P6SM BKN015
      TEMPO 2502/2506 3SM -SN BKN006=

USA.gov is the U.S. government's official web portal to all federal, state and local government web resources and services.